ADDS METAR Data INFO
IDs: Format: Raw Decoded Include TAF

Data at: 0300 UTC 21 Jan 2018

KOVL 210235Z AUTO 00000KT 10SM CLR 01/M01 A2992 RMK AO2
KOVL 210215Z AUTO 00000KT 10SM CLR 01/M01 A2992 RMK AO2
KOVL 210155Z AUTO 00000KT 10SM CLR 01/M01 A2992 RMK AO2
KOVL 210135Z AUTO 00000KT 10SM CLR 01/M01 A2993 RMK AO2
KOVL 210115Z AUTO 00000KT 10SM CLR 01/00 A2992 RMK AO2
KOVL 210055Z AUTO 00000KT 10SM CLR 01/M01 A2992 RMK AO2
KOVL 210035Z AUTO 00000KT 10SM CLR 01/M01 A2991 RMK AO2
KOVL 210015Z AUTO 00000KT 10SM CLR 02/00 A2992 RMK AO2
KOVL 202355Z AUTO 20003KT 10SM CLR 02/00 A2992 RMK AO2
KOVL 202335Z AUTO 00000KT 10SM CLR 02/M01 A2991 RMK AO2
KOVL 202315Z AUTO 35003KT 10SM CLR 04/00 A2990 RMK AO2
KOVL 202255Z AUTO 34004KT 10SM CLR 04/00 A2989 RMK AO2
KOVL 202235Z AUTO 34004KT 10SM CLR 04/00 A2989 RMK AO2
KOVL 202215Z AUTO 34004KT 10SM CLR 05/00 A2989 RMK AO2
KOVL 202155Z AUTO 30004KT 10SM CLR 06/M01 A2989 RMK AO2
KOVL 202135Z AUTO 29005KT 10SM CLR 06/M01 A2988 RMK AO2
KOVL 202115Z AUTO 30005KT 10SM CLR 06/M01 A2988 RMK AO2
KOVL 202055Z AUTO 28006KT 10SM CLR 06/M01 A2987 RMK AO2
KOVL 202035Z AUTO 26006KT 10SM CLR 06/M01 A2987 RMK AO2
KOVL 202015Z AUTO 25006KT 10SM CLR 06/M01 A2987 RMK AO2
KOVL 201955Z AUTO 26005KT 10SM CLR 06/00 A2987 RMK AO2
KOVL 201935Z AUTO 26005KT 10SM CLR 05/00 A2987 RMK AO2
KOVL 201915Z AUTO 24006KT 10SM CLR 05/00 A2987 RMK AO2
KOVL 201855Z AUTO 23003KT 10SM CLR 04/M01 A2987 RMK AO2
KOVL 201835Z AUTO 28003KT 10SM CLR 04/M01 A2988 RMK AO2
KOVL 201815Z AUTO 28004KT 10SM CLR 04/00 A2989 RMK AO2
KOVL 201755Z AUTO 28006KT 10SM CLR 04/00 A2990 RMK AO2
KOVL 201735Z AUTO 29003KT 10SM CLR 03/00 A2990 RMK AO2
KOVL 201715Z AUTO 28005KT 10SM CLR 02/00 A2990 RMK AO2
KOVL 201655Z AUTO 00000KT 10SM CLR 02/00 A2989 RMK AO2
KOVL 201635Z AUTO 23003KT 10SM CLR 01/M01 A2988 RMK AO2
KOVL 201615Z AUTO 27003KT 10SM CLR 01/00 A2988 RMK AO2
KOVL 201555Z AUTO 26003KT 10SM CLR 01/00 A2988 RMK AO2
KOVL 201535Z AUTO 00000KT 10SM CLR 00/M01 A2986 RMK AO2
KOVL 201515Z AUTO 24003KT 10SM CLR 00/M01 A2986 RMK AO2
KOVL 201455Z AUTO 27003KT 10SM CLR M01/M02 A2985 RMK AO2
KOVL 201435Z AUTO 00000KT 10SM CLR M01/M02 A2985 RMK AO2
KOVL 201415Z AUTO 00000KT 10SM CLR M01/M02 A2983 RMK AO2
KOVL 201355Z AUTO 26003KT 10SM CLR M01/M02 A2984 RMK AO2
KOVL 201335Z AUTO 25003KT 10SM CLR M01/M02 A2983 RMK AO2
KOVL 201315Z AUTO 00000KT 10SM CLR M01/M02 A2983 RMK AO2
KOVL 201255Z AUTO 00000KT 10SM CLR M01/M02 A2982 RMK AO2
KOVL 201235Z AUTO 00000KT 10SM CLR M01/M02 A2982 RMK AO2
KOVL 201215Z AUTO 00000KT 10SM CLR M01/M02 A2981 RMK AO2
KOVL 201155Z AUTO 00000KT 10SM CLR M01/M02 A2980 RMK AO2
KOVL 201135Z AUTO 00000KT 10SM CLR M01/M02 A2980 RMK AO2
KOVL 201115Z AUTO 00000KT 10SM CLR M01/M02 A2981 RMK AO2
KOVL 201055Z AUTO 24004KT 10SM CLR M01/M02 A2981 RMK AO2
KOVL 201035Z AUTO 25003KT 10SM CLR M01/M02 A2979 RMK AO2
KOVL 201015Z AUTO 28006KT 10SM CLR M01/M02 A2980 RMK AO2
KOVL 200955Z AUTO 28004KT 10SM CLR M01/M02 A2978 RMK AO2
KOVL 200935Z AUTO 28004KT 10SM CLR M01/M02 A2979 RMK AO2
KOVL 200915Z AUTO 26003KT 10SM CLR M01/M02 A2978 RMK AO2
KOVL 200855Z AUTO 30003KT 10SM CLR M01/M02 A2977 RMK AO2
KOVL 200835Z AUTO 31003KT 10SM CLR M01/M02 A2977 RMK AO2
KOVL 200815Z AUTO 31004KT 10SM CLR M01/M02 A2977 RMK AO2
KOVL 200755Z AUTO 31005KT 10SM CLR M01/M02 A2976 RMK AO2
KOVL 200735Z AUTO 30004KT 10SM CLR M01/M02 A2976 RMK AO2
KOVL 200715Z AUTO 27004KT 10SM CLR M01/M02 A2976 RMK AO2
KOVL 200655Z AUTO 26003KT 10SM CLR M01/M02 A2974 RMK AO2
KOVL 200635Z AUTO 29004KT 10SM CLR M01/M02 A2975 RMK AO2
KOVL 200615Z AUTO 27003KT 10SM CLR M01/M02 A2975 RMK AO2
KOVL 200555Z AUTO 28005KT 10SM CLR 00/M01 A2975 RMK AO2
KOVL 200535Z AUTO 30006KT 10SM CLR 01/00 A2974 RMK AO2
KOVL 200515Z AUTO 30006KT 10SM CLR 01/M01 A2972 RMK AO2
KOVL 200455Z AUTO 30006KT 10SM CLR 01/00 A2972 RMK AO2
KOVL 200435Z AUTO 30006KT 10SM CLR 01/M01 A2970 RMK AO2
KOVL 200415Z AUTO 30005KT 10SM CLR 01/M01 A2969 RMK AO2
KOVL 200355Z AUTO 30006KT 10SM CLR 01/M01 A2969 RMK AO2
KOVL 200335Z AUTO 30006KT 10SM CLR 01/M01 A2967 RMK AO2
KOVL 200315Z AUTO 31007KT 10SM CLR 02/00 A2967 RMK AO2
KOVL 200255Z AUTO 29006KT 10SM CLR 02/M01 A2967 RMK AO2
KOVL 200235Z AUTO 30006KT 10SM CLR 02/M01 A2967 RMK AO2
KOVL 200215Z AUTO 29006KT 10SM CLR 02/00 A2967 RMK AO2
KOVL 200155Z AUTO 30007KT 10SM CLR 02/00 A2966 RMK AO2
KOVL 200135Z AUTO 30008KT 10SM CLR 02/M01 A2964 RMK AO2
KOVL 200115Z AUTO 30008KT 10SM CLR 03/00 A2963 RMK AO2
KOVL 200055Z AUTO 30008KT 10SM CLR 01/00 A2963 RMK AO2
KOVL 200035Z AUTO 30004KT 10SM CLR 02/00 A2960 RMK AO2
KOVL 200015Z AUTO 28006KT 10SM CLR 02/00 A2960 RMK AO2
KOVL 192355Z AUTO 30007KT 10SM CLR 04/00 A2960 RMK AO2
KOVL 192335Z AUTO 30008KT 10SM CLR 04/00 A2959 RMK AO2
KOVL 192315Z AUTO 30007KT 10SM CLR 04/00 A2958 RMK AO2
KOVL 192255Z AUTO 29007KT 10SM CLR 04/00 A2957 RMK AO2
KOVL 192235Z AUTO 27004KT 10SM CLR 04/00 A2955 RMK AO2
KOVL 192215Z AUTO 28006KT 10SM CLR 06/00 A2954 RMK AO2
KOVL 192156Z AUTO 30009KT 10SM CLR 07/00 A2953 RMK AO2
KOVL 192135Z AUTO 29007KT 10SM CLR 07/00 A2952 RMK AO2
KOVL 192115Z AUTO 28008KT 10SM CLR 07/00 A2951 RMK AO2
KOVL 192055Z AUTO 28008KT 10SM CLR 07/00 A2950 RMK AO2
KOVL 192035Z AUTO 32010KT 10SM CLR 08/00 A2950 RMK AO2
KOVL 192015Z AUTO 32010G15KT 10SM CLR 08/00 A2948 RMK AO2
KOVL 191955Z AUTO 30012KT 10SM CLR 08/00 A2948 RMK AO2
KOVL 191935Z AUTO 29010KT 10SM CLR 08/01 A2948 RMK AO2
KOVL 191915Z AUTO 28010KT 10SM CLR 07/00 A2948 RMK AO2
KOVL 191855Z AUTO 25010KT 10SM CLR 06/00 A2948 RMK AO2
KOVL 191835Z AUTO 26009G14KT 10SM CLR 06/00 A2948 RMK AO2
KOVL 191815Z AUTO 24012G17KT 10SM CLR 05/00 A2948 RMK AO2
KOVL 191755Z AUTO 23010KT 10SM CLR 04/00 A2949 RMK AO2
KOVL 191735Z AUTO 22009KT 10SM CLR 02/M01 A2950 RMK AO2
KOVL 191715Z AUTO 21009KT 10SM CLR 02/00 A2950 RMK AO2
KOVL 191655Z AUTO 21008KT 10SM CLR 02/M01 A2952 RMK AO2
KOVL 191635Z AUTO 19007KT 10SM CLR 01/M01 A2952 RMK AO2
KOVL 191615Z AUTO 17008KT 10SM CLR 01/M01 A2949 RMK AO2
KOVL 191555Z AUTO 17006KT 10SM CLR 01/M01 A2952 RMK AO2
KOVL 191535Z AUTO 17005KT 10SM CLR 00/M02 A2952 RMK AO2
KOVL 191515Z AUTO 14008KT 10SM CLR 00/M02 A2952 RMK AO2